Time;durP1;ratioP1;P1;durP2;ratioP2;P2;SDS_P1;SDS_P2;PMS_P1;PMS_P2;Temp;Humidity;BMP_temperature;BMP_pressure;BME280_temperature;BME280_humidity;BME280_pressure;Samples;Min_cycle;Max_cycle;Signal;HPM_P1;HPM_P2
2021/01/08 00:00:40;;;;;;;4.40;3.05;;;;;;;6.16;100.00;97254.03;5026995;28;20021;-85
2021/01/08 00:03:06;;;;;;;2.88;1.83;;;;;;;6.22;100.00;97244.88;5039882;28;20029;-85
2021/01/08 00:05:31;;;;;;;7.90;3.05;;;;;;;6.22;100.00;97247.53;5021993;28;20021;-85
2021/01/08 00:07:57;;;;;;;2.22;1.55;;;;;;;6.19;100.00;97247.69;5030828;28;20025;-85
2021/01/08 00:10:22;;;;;;;2.45;2.03;;;;;;;6.04;100.00;97240.47;5014251;28;20087;-86
2021/01/08 00:12:48;;;;;;;2.70;1.48;;;;;;;6.10;100.00;97251.66;5030690;28;20108;-85
2021/01/08 00:15:14;;;;;;;1.02;1.00;;;;;;;6.17;100.00;97257.53;5050079;28;20024;-85
2021/01/08 00:17:39;;;;;;;3.38;1.13;;;;;;;6.13;100.00;97250.66;5034143;28;20496;-85
2021/01/08 00:20:06;;;;;;;0.57;0.57;;;;;;;6.07;100.00;97254.47;5016017;28;20060;-83
2021/01/08 00:22:32;;;;;;;3.00;0.70;;;;;;;5.99;100.00;97257.50;5014640;28;20040;-84
2021/01/08 00:24:58;;;;;;;1.50;0.88;;;;;;;5.95;100.00;97247.97;5030844;28;20485;-83
2021/01/08 00:27:23;;;;;;;0.25;0.25;;;;;;;5.94;100.00;97256.84;5026933;28;20029;-84
2021/01/08 00:29:49;;;;;;;0.35;0.35;;;;;;;5.93;100.00;97248.97;5034090;28;20036;-83
2021/01/08 00:32:15;;;;;;;1.02;1.02;;;;;;;5.78;100.00;97239.91;5034030;28;20029;-84
2021/01/08 00:34:41;;;;;;;2.17;0.38;;;;;;;5.79;100.00;97243.44;5033588;28;20481;-84
2021/01/08 00:37:07;;;;;;;1.38;0.85;;;;;;;5.81;100.00;97244.22;5032368;28;20033;-84
2021/01/08 00:39:33;;;;;;;1.83;1.35;;;;;;;5.72;100.00;97232.25;5030613;28;20044;-84
2021/01/08 00:42:00;;;;;;;4.40;1.20;;;;;;;5.70;100.00;97247.38;5029234;28;20029;-84
2021/01/08 00:44:25;;;;;;;0.20;0.20;;;;;;;5.62;100.00;97238.94;5034442;28;20044;-84
2021/01/08 00:46:51;;;;;;;0.45;0.45;;;;;;;5.54;100.00;97233.13;5025358;28;20017;-85
2021/01/08 00:49:17;;;;;;;0.20;0.20;;;;;;;5.58;100.00;97237.34;5037450;28;20025;-85
2021/01/08 00:51:43;;;;;;;1.15;0.75;;;;;;;5.61;100.00;97234.56;5037700;28;20477;-85
2021/01/08 00:54:09;;;;;;;0.20;0.20;;;;;;;5.53;100.00;97234.06;5037526;28;20033;-85
2021/01/08 00:56:35;;;;;;;0.20;0.20;;;;;;;5.60;100.00;97245.25;5037613;28;20122;-85
2021/01/08 00:59:00;;;;;;;0.15;0.15;;;;;;;5.61;100.00;97252.25;5037184;28;20040;-84
2021/01/08 01:01:26;;;;;;;0.20;0.20;;;;;;;5.61;100.00;97241.66;5037250;28;20036;-85
2021/01/08 01:03:52;;;;;;;0.17;0.17;;;;;;;5.58;100.00;97232.06;5029914;28;20083;-84
2021/01/08 01:06:25;;;;;;;0.63;0.63;;;;;;;5.53;100.00;97226.13;5016911;28;20515;-84
2021/01/08 01:08:51;;;;;;;0.10;0.10;;;;;;;5.52;100.00;97227.03;5025524;28;20022;-84
2021/01/08 01:11:17;;;;;;;0.20;0.20;;;;;;;5.57;100.00;97240.94;5017178;28;20032;-84
2021/01/08 01:13:44;;;;;;;0.85;0.55;;;;;;;5.53;100.00;97228.78;5017379;28;20021;-84
2021/01/08 01:16:10;;;;;;;0.52;0.30;;;;;;;5.52;100.00;97229.69;5017269;28;20033;-85
2021/01/08 01:18:36;;;;;;;0.30;0.30;;;;;;;5.58;100.00;97232.06;5030049;28;20028;-84
2021/01/08 01:21:02;;;;;;;0.43;0.22;;;;;;;5.57;100.00;97234.78;5053300;28;20455;-83
2021/01/08 01:23:27;;;;;;;0.40;0.40;;;;;;;5.63;100.00;97234.50;5053811;28;20120;-85
2021/01/08 01:25:53;;;;;;;2.08;0.57;;;;;;;5.55;100.00;97237.50;5038022;28;20449;-85
2021/01/08 01:28:19;;;;;;;0.73;0.73;;;;;;;5.55;100.00;97232.19;5016920;28;20033;-83
2021/01/08 01:30:44;;;;;;;0.20;0.20;;;;;;;5.51;100.00;97233.25;5016679;28;20052;-83
2021/01/08 01:33:10;;;;;;;0.20;0.20;;;;;;;5.53;100.00;97239.38;5016581;28;20064;-83
2021/01/08 01:35:35;;;;;;;1.45;0.50;;;;;;;5.54;100.00;97240.25;5016960;28;20342;-83
2021/01/08 01:38:02;;;;;;;0.90;0.63;;;;;;;5.55;100.00;97232.19;5041317;28;20098;-84
2021/01/08 01:40:27;;;;;;;0.15;0.15;;;;;;;5.45;100.00;97238.84;5049989;28;20496;-84
2021/01/08 01:42:53;;;;;;;0.30;0.20;;;;;;;5.46;100.00;97232.63;5031858;28;20021;-84
2021/01/08 01:45:19;;;;;;;1.33;0.85;;;;;;;5.34;100.00;97228.75;5052473;28;20064;-84
2021/01/08 01:47:44;;;;;;;0.20;0.20;;;;;;;5.27;100.00;97229.97;5017102;28;20087;-84
2021/01/08 01:50:11;;;;;;;0.20;0.20;;;;;;;5.22;100.00;97218.72;5041421;28;20033;-83
2021/01/08 01:52:37;;;;;;;0.22;0.17;;;;;;;5.21;100.00;97235.56;5053206;28;20112;-84
2021/01/08 01:55:04;;;;;;;0.30;0.30;;;;;;;5.13;100.00;97227.09;5036340;28;20039;-84
2021/01/08 01:57:30;;;;;;;0.20;0.20;;;;;;;5.09;100.00;97227.28;5035684;28;20044;-84
2021/01/08 01:59:56;;;;;;;3.95;0.60;;;;;;;4.90;100.00;97222.84;5036481;28;20028;-84
2021/01/08 02:02:33;;;;;;;0.55;0.50;;;;;;;4.96;100.00;97221.69;5034049;28;20124;-85
2021/01/08 02:05:02;;;;;;;0.65;0.65;;;;;;;4.87;100.00;97228.25;5016212;28;20069;-85
2021/01/08 02:07:28;;;;;;;0.30;0.30;;;;;;;4.77;100.00;97218.13;5033315;28;20025;-85
2021/01/08 02:09:55;;;;;;;0.20;0.20;;;;;;;4.65;100.00;97205.44;5031127;28;20020;-85
2021/01/08 02:12:21;;;;;;;0.38;0.38;;;;;;;4.59;100.00;97217.16;5017986;28;20029;-84
2021/01/08 02:14:47;;;;;;;0.38;0.38;;;;;;;4.57;100.00;97218.16;5038083;28;20039;-85
2021/01/08 02:17:15;;;;;;;0.43;0.43;;;;;;;4.46;100.00;97218.59;5043936;28;20544;-85
2021/01/08 02:19:52;;;;;;;1.08;0.73;;;;;;;4.41;100.00;97217.97;5016279;28;20108;-85
2021/01/08 02:22:23;;;;;;;0.60;0.60;;;;;;;4.38;100.00;97207.50;5032443;28;20044;-86
2021/01/08 02:25:16;;;;;;;0.57;0.43;;;;;;;4.44;100.00;97214.31;5021479;28;20028;-85
2021/01/08 02:28:07;;;;;;;0.20;0.20;;;;;;;4.40;100.00;97216.22;5031259;28;20041;-86
2021/01/08 02:30:34;;;;;;;0.15;0.15;;;;;;;4.23;100.00;97208.16;5031889;28;20124;-85
2021/01/08 02:33:01;;;;;;;0.10;0.10;;;;;;;4.19;100.00;97206.56;5046658;28;20037;-85
2021/01/08 02:35:27;;;;;;;0.13;0.13;;;;;;;4.07;100.00;97191.19;5043143;28;20029;-84
2021/01/08 02:37:55;;;;;;;0.20;0.20;;;;;;;4.09;100.00;97194.66;5036294;28;20116;-85
2021/01/08 02:40:21;;;;;;;0.10;0.10;;;;;;;3.96;100.00;97206.66;5052408;28;20033;-84
2021/01/08 02:42:48;;;;;;;0.10;0.10;;;;;;;3.72;100.00;97201.44;5052350;28;20032;-85
2021/01/08 02:45:14;;;;;;;0.40;0.40;;;;;;;3.70;100.00;97192.72;5052251;28;20072;-85
2021/01/08 02:47:40;;;;;;;0.40;0.40;;;;;;;3.67;100.00;97189.34;5035556;28;20545;-84
2021/01/08 02:50:06;;;;;;;0.40;0.30;;;;;;;3.66;100.00;97199.06;5043925;28;20068;-84
2021/01/08 02:52:33;;;;;;;0.98;0.93;;;;;;;3.46;100.00;97185.78;5041470;28;20033;-84
2021/01/08 02:55:03;;;;;;;0.20;0.20;;;;;;;3.52;100.00;97177.59;5015634;28;20057;-85
2021/01/08 02:57:29;;;;;;;0.22;0.22;;;;;;;3.59;100.00;97171.16;5031826;28;20107;-84
2021/01/08 02:59:59;;;;;;;0.40;0.40;;;;;;;3.57;100.00;97172.97;5016093;28;20481;-83
2021/01/08 03:02:25;;;;;;;0.10;0.10;;;;;;;3.55;100.00;97163.41;5022070;28;20029;-83
2021/01/08 03:04:51;;;;;;;0.10;0.10;;;;;;;3.57;100.00;97170.34;5023978;28;20026;-83
2021/01/08 03:07:19;;;;;;;0.10;0.10;;;;;;;3.59;100.00;97162.34;5023233;28;20413;-84
2021/01/08 03:09:45;;;;;;;0.50;0.43;;;;;;;3.54;100.00;97175.75;5003012;28;20037;-84
2021/01/08 03:12:14;;;;;;;0.10;0.10;;;;;;;3.52;100.00;97164.38;5021470;28;20167;-84
2021/01/08 03:14:50;;;;;;;0.65;0.52;;;;;;;3.55;100.00;97163.41;5032705;28;20048;-84
2021/01/08 03:17:15;;;;;;;0.10;0.10;;;;;;;3.52;100.00;97167.03;5034842;28;20067;-84
2021/01/08 03:19:41;;;;;;;0.10;0.10;;;;;;;3.57;100.00;97170.34;5026373;28;20048;-83
2021/01/08 03:22:06;;;;;;;0.15;0.15;;;;;;;3.54;100.00;97157.25;5034997;28;20508;-84
2021/01/08 03:24:33;;;;;;;0.20;0.20;;;;;;;3.58;100.00;97153.56;5036395;28;20120;-86
2021/01/08 03:27:08;;;;;;;0.10;0.10;;;;;;;3.68;100.00;97164.63;5050821;28;20022;-85
2021/01/08 03:29:33;;;;;;;0.20;0.20;;;;;;;3.53;100.00;97147.59;5030806;28;20504;-83
2021/01/08 03:31:59;;;;;;;0.10;0.10;;;;;;;3.52;100.00;97155.59;5014909;28;20057;-85
2021/01/08 03:34:24;;;;;;;0.20;0.20;;;;;;;3.51;100.00;97144.16;5031480;28;20060;-84
2021/01/08 03:36:50;;;;;;;0.13;0.13;;;;;;;3.60;100.00;97138.47;5031223;28;20104;-83
2021/01/08 03:39:16;;;;;;;3.72;1.02;;;;;;;3.60;100.00;97138.47;5014991;28;20033;-84
2021/01/08 03:41:41;;;;;;;0.10;0.10;;;;;;;3.55;100.00;97132.53;5031085;28;20095;-85
2021/01/08 03:44:07;;;;;;;0.20;0.20;;;;;;;3.54;100.00;97136.09;5039718;28;20398;-84
2021/01/08 03:46:36;;;;;;;1.35;1.25;;;;;;;3.59;100.00;97131.50;5048997;28;20029;-84
2021/01/08 03:49:05;;;;;;;0.28;0.28;;;;;;;3.59;100.00;97136.78;5038158;28;20061;-85
2021/01/08 03:51:31;;;;;;;0.10;0.10;;;;;;;3.62;100.00;97136.66;5039072;28;20516;-84
2021/01/08 03:53:56;;;;;;;0.40;0.40;;;;;;;3.62;100.00;97115.50;5014954;28;20036;-84
2021/01/08 03:56:22;;;;;;;0.15;0.15;;;;;;;3.56;100.00;97126.34;5014634;28;20044;-84
2021/01/08 03:58:48;;;;;;;1.33;0.52;;;;;;;3.63;100.00;97119.84;5014266;28;20033;-84
2021/01/08 04:01:14;;;;;;;0.10;0.10;;;;;;;3.64;100.00;97107.50;5030817;28;20033;-84
2021/01/08 04:03:39;;;;;;;0.10;0.10;;;;;;;3.65;100.00;97120.66;5032823;28;20385;-84
2021/01/08 04:06:05;;;;;;;1.65;0.32;;;;;;;3.55;100.00;97084.94;5051010;28;20028;-85
2021/01/08 04:08:30;;;;;;;0.40;0.40;;;;;;;3.65;100.00;97099.50;5033944;28;20024;-83
2021/01/08 04:10:56;;;;;;;0.10;0.10;;;;;;;3.64;100.00;97078.41;5034122;28;20029;-84
2021/01/08 04:13:21;;;;;;;0.10;0.10;;;;;;;3.71;100.00;97087.81;5026648;28;20029;-85
2021/01/08 04:15:47;;;;;;;0.13;0.13;;;;;;;3.76;100.00;97089.31;5013903;28;20516;-84
2021/01/08 04:18:13;;;;;;;0.20;0.20;;;;;;;3.61;100.00;97066.19;5013956;28;20038;-84
2021/01/08 04:20:38;;;;;;;0.55;0.55;;;;;;;3.46;100.00;97061.53;5023412;28;20043;-85
2021/01/08 04:23:04;;;;;;;0.17;0.17;;;;;;;3.52;100.00;97086.84;5033969;28;20518;-84
2021/01/08 04:25:29;;;;;;;0.73;0.68;;;;;;;3.64;100.00;97081.06;5025821;28;20048;-84
2021/01/08 04:27:55;;;;;;;1.73;1.40;;;;;;;3.65;100.00;97072.19;5009498;28;20511;-84
2021/01/08 04:30:23;;;;;;;1.17;0.85;;;;;;;3.66;100.00;97061.53;5050260;28;20071;-84
2021/01/08 04:32:49;;;;;;;1.90;1.15;;;;;;;3.67;100.00;97057.97;5047924;28;20573;-84
2021/01/08 04:35:15;;;;;;;0.40;0.40;;;;;;;3.75;100.00;97050.56;5020460;28;20120;-84
2021/01/08 04:37:40;;;;;;;0.85;0.85;;;;;;;3.70;100.00;97036.69;5050128;28;20449;-84
2021/01/08 04:40:07;;;;;;;1.25;1.15;;;;;;;3.78;100.00;97044.31;5033610;28;20031;-84
2021/01/08 04:42:34;;;;;;;4.10;1.38;;;;;;;3.73;100.00;97033.91;5042190;28;20037;-84
2021/01/08 04:44:59;;;;;;;1.40;0.63;;;;;;;3.76;100.00;97044.38;5031028;28;20477;-84
2021/01/08 04:47:37;;;;;;;0.20;0.20;;;;;;;3.77;100.00;97050.53;5029174;28;20056;-85
2021/01/08 04:50:04;;;;;;;0.43;0.43;;;;;;;3.67;100.00;97044.75;5048063;28;20051;-85
2021/01/08 04:52:31;;;;;;;0.10;0.10;;;;;;;3.61;100.00;97031.81;5035315;28;20066;-85
2021/01/08 04:54:56;;;;;;;0.30;0.30;;;;;;;3.64;100.00;97044.91;5031271;28;20032;-85
2021/01/08 04:57:23;;;;;;;2.22;1.15;;;;;;;3.71;100.00;97045.50;5020653;28;20033;-85
2021/01/08 04:59:50;;;;;;;1.00;0.50;;;;;;;3.70;100.00;97044.63;5015642;28;20099;-84
2021/01/08 05:02:18;;;;;;;0.52;0.52;;;;;;;3.68;100.00;97035.91;5014169;28;20120;-84
2021/01/08 05:05:02;;;;;;;0.10;0.10;;;;;;;3.75;100.00;97029.41;5023462;28;20119;-84
2021/01/08 05:07:28;;;;;;;0.57;0.57;;;;;;;3.69;100.00;97032.31;5043767;28;20034;-86
2021/01/08 05:09:54;;;;;;;2.33;1.20;;;;;;;3.71;100.00;97042.84;5016050;28;20551;-85
2021/01/08 05:12:19;;;;;;;2.75;1.17;;;;;;;3.75;100.00;97031.22;5020177;28;20037;-85
2021/01/08 05:14:46;;;;;;;1.38;1.05;;;;;;;3.85;100.00;97043.09;5022005;28;20021;-85
2021/01/08 05:17:11;;;;;;;1.50;1.42;;;;;;;3.86;100.00;97038.69;5013839;28;20512;-84
2021/01/08 05:19:37;;;;;;;1.65;1.52;;;;;;;3.81;100.00;97036.25;5013492;28;20021;-85
2021/01/08 05:22:04;;;;;;;1.20;0.65;;;;;;;3.83;100.00;97045.84;5013760;28;20370;-85
2021/01/08 05:24:30;;;;;;;0.45;0.45;;;;;;;3.75;100.00;97036.50;5014274;28;20122;-85
2021/01/08 05:26:55;;;;;;;0.52;0.52;;;;;;;3.87;100.00;97059.78;5016624;28;20025;-84
2021/01/08 05:29:27;;;;;;;0.75;0.75;;;;;;;3.78;100.00;97063.66;5031339;28;20451;-84
2021/01/08 05:31:54;;;;;;;0.70;0.70;;;;;;;3.76;100.00;97054.09;5018638;28;20041;-85
2021/01/08 05:34:25;;;;;;;2.88;0.98;;;;;;;3.63;100.00;97023.81;5017090;28;20026;-85
2021/01/08 05:36:51;;;;;;;2.00;1.30;;;;;;;3.61;100.00;97047.66;5026674;28;20029;-84
2021/01/08 05:39:19;;;;;;;0.45;0.45;;;;;;;3.64;100.00;97036.97;5024076;28;20029;-84
2021/01/08 05:41:44;;;;;;;4.90;0.70;;;;;;;3.64;100.00;97018.47;5024765;28;20116;-84
2021/01/08 05:44:10;;;;;;;0.40;0.40;;;;;;;3.73;100.00;97028.63;5025199;28;20492;-84
2021/01/08 05:46:37;;;;;;;1.30;1.08;;;;;;;3.76;100.00;97049.66;5033027;28;20032;-84
2021/01/08 05:49:07;;;;;;;9.07;5.60;;;;;;;3.72;100.00;97048.06;5020042;28;20416;-85
2021/01/08 05:51:37;;;;;;;1.48;0.68;;;;;;;3.72;100.00;97050.69;5028719;28;20027;-84
2021/01/08 05:54:03;;;;;;;1.30;1.20;;;;;;;3.82;100.00;97043.25;5033940;28;20126;-80
2021/01/08 05:56:36;;;;;;;1.88;1.15;;;;;;;3.81;100.00;97057.41;5016129;28;20037;-77
2021/01/08 05:59:06;;;;;;;1.58;0.98;;;;;;;3.78;100.00;97046.97;5022925;28;20040;-85
2021/01/08 06:01:33;;;;;;;1.83;1.73;;;;;;;3.79;100.00;97044.22;5011350;28;20493;-87
2021/01/08 06:04:01;;;;;;;3.25;1.65;;;;;;;3.77;100.00;97048.75;5015692;28;20025;-86
2021/01/08 06:06:43;;;;;;;2.47;1.98;;;;;;;3.75;100.00;97040.00;5008155;28;20382;-84
2021/01/08 06:09:14;;;;;;;1.70;0.80;;;;;;;3.76;100.00;97049.66;5026483;28;20597;-83
2021/01/08 06:11:43;;;;;;;1.02;0.73;;;;;;;3.88;100.00;97048.25;4996991;28;20029;-84
2021/01/08 06:14:10;;;;;;;0.15;0.15;;;;;;;3.81;100.00;97052.13;4997029;28;20509;-84
2021/01/08 06:16:38;;;;;;;0.30;0.30;;;;;;;3.77;100.00;97027.59;5044557;28;20017;-84
2021/01/08 06:19:05;;;;;;;0.55;0.55;;;;;;;3.89;100.00;97042.06;5044363;28;20337;-85
2021/01/08 06:21:39;;;;;;;1.02;0.70;;;;;;;3.93;100.00;97021.63;5036284;28;20447;-84
2021/01/08 06:24:05;;;;;;;2.05;1.10;;;;;;;3.89;100.00;97038.53;5042065;28;20048;-83
2021/01/08 06:26:32;;;;;;;1.55;1.05;;;;;;;3.92;100.00;97022.53;5030051;28;20043;-85
2021/01/08 06:29:02;;;;;;;5.63;4.43;;;;;;;3.96;100.00;97037.34;5034739;28;20498;-84
2021/01/08 06:31:36;;;;;;;2.67;1.80;;;;;;;3.87;100.00;97040.41;5020851;28;20134;-83
2021/01/08 06:34:02;;;;;;;6.25;2.50;;;;;;;3.87;100.00;97035.97;5026040;28;20042;-83
2021/01/08 06:36:29;;;;;;;3.13;1.88;;;;;;;3.83;100.00;97045.84;5029231;28;20055;-83
2021/01/08 06:39:01;;;;;;;7.78;3.97;;;;;;;3.91;100.00;97042.84;5018328;28;20029;-83
2021/01/08 06:41:27;;;;;;;4.50;2.67;;;;;;;3.89;100.00;97033.25;5023692;28;20029;-83
2021/01/08 06:43:57;;;;;;;0.85;0.85;;;;;;;3.88;100.00;97021.81;5015353;28;20359;-81
2021/01/08 06:46:31;;;;;;;2.30;1.92;;;;;;;3.87;100.00;97035.97;5020221;28;20056;-84
2021/01/08 06:49:01;;;;;;;5.28;2.22;;;;;;;3.96;100.00;97029.41;5034834;28;20048;-84
2021/01/08 06:51:29;;;;;;;1.20;1.08;;;;;;;3.90;100.00;97024.41;5015608;28;20088;-84
2021/01/08 06:53:56;;;;;;;2.28;2.03;;;;;;;3.97;100.00;97020.56;5015695;28;20021;-84
2021/01/08 06:56:33;;;;;;;2.55;1.55;;;;;;;3.99;100.00;97019.56;5035716;28;20051;-84
2021/01/08 06:59:00;;;;;;;1.67;1.58;;;;;;;4.05;100.00;97021.06;5051443;28;20091;-83
2021/01/08 07:01:31;;;;;;;5.18;2.83;;;;;;;4.05;100.00;97029.00;5014953;28;20489;-83
2021/01/08 07:03:57;;;;;;;1.73;1.63;;;;;;;4.09;100.00;97026.13;5031670;28;20398;-83
2021/01/08 07:06:23;;;;;;;2.10;1.58;;;;;;;4.14;100.00;97024.16;5027459;28;20024;-84
2021/01/08 07:08:49;;;;;;;1.88;1.77;;;;;;;4.25;100.00;97015.72;5044937;28;20408;-84
2021/01/08 07:11:25;;;;;;;3.97;2.60;;;;;;;4.25;100.00;97021.03;5042436;28;20064;-83
2021/01/08 07:14:21;;;;;;;2.92;1.30;;;;;;;4.37;100.00;97009.88;5044296;28;20116;-83
2021/01/08 07:16:48;;;;;;;5.97;2.35;;;;;;;4.29;100.00;97038.50;5019404;28;20033;-83
2021/01/08 07:19:15;;;;;;;2.03;1.50;;;;;;;4.22;100.00;97021.16;5033404;28;20467;-83
2021/01/08 07:21:43;;;;;;;11.43;2.83;;;;;;;4.18;100.00;97031.03;5045646;28;20026;-83
2021/01/08 07:24:10;;;;;;;6.22;1.98;;;;;;;4.16;100.00;97027.59;5031633;28;20041;-84
2021/01/08 07:26:36;;;;;;;1.60;1.30;;;;;;;4.28;100.00;97018.22;5027932;28;20027;-84
2021/01/08 07:29:03;;;;;;;2.75;2.20;;;;;;;4.32;100.00;97022.47;5033648;28;20119;-84
2021/01/08 07:31:33;;;;;;;1.35;1.25;;;;;;;4.37;100.00;97004.56;5014522;28;20065;-84
2021/01/08 07:34:00;;;;;;;5.38;2.00;;;;;;;4.42;100.00;97007.88;5047773;28;20029;-84
2021/01/08 07:36:27;;;;;;;1.60;1.38;;;;;;;4.54;100.00;97012.59;5034627;28;20025;-85
2021/01/08 07:38:53;;;;;;;1.40;1.30;;;;;;;4.57;100.00;96999.22;5034483;28;20047;-84
2021/01/08 07:41:32;;;;;;;1.33;1.23;;;;;;;4.69;100.00;97006.59;5018000;28;20379;-84
2021/01/08 07:43:57;;;;;;;3.92;2.00;;;;;;;4.68;100.00;97004.88;5026944;28;20499;-84
2021/01/08 07:46:27;;;;;;;0.88;0.88;;;;;;;4.74;100.00;96993.97;5014228;28;20021;-84
2021/01/08 07:48:56;;;;;;;6.20;2.53;;;;;;;4.72;100.00;96987.91;5029061;28;20029;-84
2021/01/08 07:51:22;;;;;;;7.88;3.70;;;;;;;4.68;100.00;96985.47;5031339;28;20029;-84
2021/01/08 07:53:53;;;;;;;7.38;4.53;;;;;;;4.74;100.00;96985.16;5045748;28;20025;-84
2021/01/08 07:56:26;;;;;;;4.38;2.60;;;;;;;4.65;100.00;96975.88;5048732;28;20033;-84
2021/01/08 07:59:03;;;;;;;6.57;3.90;;;;;;;4.72;100.00;96982.59;5014804;28;20032;-84
2021/01/08 08:01:29;;;;;;;5.03;3.55;;;;;;;4.69;100.00;96996.00;5042704;28;20032;-84
2021/01/08 08:03:59;;;;;;;9.10;4.35;;;;;;;4.71;100.00;96985.31;5019103;28;20021;-84
2021/01/08 08:06:27;;;;;;;3.40;2.17;;;;;;;4.75;100.00;96990.41;5030529;28;20025;-84
2021/01/08 08:08:53;;;;;;;4.78;3.47;;;;;;;4.88;100.00;96995.97;5014423;28;20100;-84
2021/01/08 08:11:24;;;;;;;1.27;1.20;;;;;;;4.87;100.00;96983.66;5024304;28;20121;-82
2021/01/08 08:13:49;;;;;;;3.80;1.52;;;;;;;4.77;100.00;96972.63;5028930;28;20056;-83
2021/01/08 08:16:15;;;;;;;3.17;2.88;;;;;;;4.93;100.00;96976.25;5038531;28;20025;-83
2021/01/08 08:18:59;;;;;;;3.05;2.50;;;;;;;4.90;100.00;96963.16;5026900;28;20033;-83
2021/01/08 08:21:25;;;;;;;4.18;3.13;;;;;;;4.92;100.00;96956.00;5014960;28;20040;-83
2021/01/08 08:23:51;;;;;;;9.50;2.78;;;;;;;5.05;100.00;96961.53;5030814;28;20104;-83
2021/01/08 08:26:17;;;;;;;6.20;1.63;;;;;;;5.15;100.00;96948.69;5031575;28;20417;-83
2021/01/08 08:28:42;;;;;;;1.70;1.60;;;;;;;5.28;100.00;96942.72;5025607;28;20025;-82
2021/01/08 08:31:08;;;;;;;3.65;2.17;;;;;;;5.31;100.00;96947.00;5025628;28;20071;-84
2021/01/08 08:33:33;;;;;;;3.08;2.78;;;;;;;5.35;100.00;96932.66;5021894;28;20079;-84
2021/01/08 08:35:59;;;;;;;3.63;2.58;;;;;;;5.18;100.00;96945.88;5030316;28;20033;-83
2021/01/08 08:38:25;;;;;;;4.75;3.60;;;;;;;5.20;100.00;96947.53;5032234;28;20025;-84
2021/01/08 08:40:50;;;;;;;5.82;3.47;;;;;;;5.07;100.00;96950.88;5050134;28;20049;-84
2021/01/08 08:43:21;;;;;;;4.60;1.70;;;;;;;4.68;100.00;96946.59;5041239;28;20029;-83
2021/01/08 08:45:47;;;;;;;3.17;1.90;;;;;;;4.72;100.00;96942.88;5026897;28;20025;-84
2021/01/08 08:48:14;;;;;;;4.95;1.42;;;;;;;4.69;100.00;96940.38;5016779;28;20095;-83
2021/01/08 08:50:43;;;;;;;5.28;1.40;;;;;;;4.50;100.00;96958.06;5021646;28;20037;-84
2021/01/08 08:53:13;;;;;;;1.38;1.27;;;;;;;4.33;100.00;96944.78;5030599;28;20487;-84
2021/01/08 08:55:39;;;;;;;3.55;1.77;;;;;;;4.33;100.00;96935.06;5015970;28;20515;-84
2021/01/08 08:58:10;;;;;;;3.28;2.10;;;;;;;4.43;100.00;96919.56;5022129;28;20033;-84
2021/01/08 09:00:39;;;;;;;1.02;0.93;;;;;;;4.52;100.00;96913.88;5018361;28;20060;-84
2021/01/08 09:03:19;;;;;;;0.85;0.63;;;;;;;4.62;100.00;96931.00;5037503;28;20535;-84
2021/01/08 09:05:47;;;;;;;0.80;0.80;;;;;;;4.72;100.00;96924.34;5017646;28;20033;-85
2021/01/08 09:08:19;;;;;;;5.68;1.35;;;;;;;4.65;100.00;96932.63;5025415;28;20452;-85
2021/01/08 09:11:13;;;;;;;0.55;0.55;;;;;;;4.73;100.00;96923.41;5037842;28;20059;-84
2021/01/08 09:13:51;;;;;;;0.80;0.55;;;;;;;4.80;100.00;96911.56;5037176;28;20029;-84
2021/01/08 09:16:22;;;;;;;2.00;1.48;;;;;;;4.68;100.00;96913.94;5028690;28;20032;-83
2021/01/08 09:19:07;;;;;;;4.95;2.28;;;;;;;4.69;100.00;96932.44;5028875;28;20109;-84
2021/01/08 09:21:37;;;;;;;0.75;0.75;;;;;;;4.83;100.00;96942.34;5045002;28;20484;-84
2021/01/08 09:24:03;;;;;;;1.48;1.38;;;;;;;4.85;100.00;96943.13;5036965;28;20037;-83
2021/01/08 09:26:30;;;;;;;3.35;0.88;;;;;;;4.71;100.00;96934.97;5026474;28;20025;-84
2021/01/08 09:28:56;;;;;;;1.67;1.58;;;;;;;4.83;100.00;96935.25;5017318;28;20032;-84
2021/01/08 09:31:41;;;;;;;0.43;0.43;;;;;;;4.91;100.00;96922.50;5017334;28;20420;-84
2021/01/08 09:34:07;;;;;;;1.88;1.35;;;;;;;4.89;100.00;96924.34;5046989;28;20021;-84
2021/01/08 09:36:35;;;;;;;1.48;1.38;;;;;;;4.71;100.00;96938.50;5018954;28;20052;-84
2021/01/08 09:39:03;;;;;;;1.38;0.93;;;;;;;4.73;100.00;96934.00;5036649;28;20123;-84
2021/01/08 09:41:30;;;;;;;2.15;1.58;;;;;;;4.79;100.00;96935.50;5035529;28;20455;-84
2021/01/08 09:43:57;;;;;;;1.83;1.30;;;;;;;4.78;100.00;96928.47;5021602;28;20028;-84
2021/01/08 09:46:23;;;;;;;2.38;2.20;;;;;;;4.73;100.00;96923.41;5019302;28;20025;-83
2021/01/08 09:48:48;;;;;;;9.57;1.77;;;;;;;4.85;100.00;96921.94;5033504;28;20040;-84
2021/01/08 09:51:14;;;;;;;2.97;2.10;;;;;;;4.94;100.00;96916.19;5016860;28;20136;-84
2021/01/08 09:53:40;;;;;;;4.55;1.75;;;;;;;4.94;100.00;96916.19;5024457;28;20033;-83
2021/01/08 09:56:16;;;;;;;1.73;1.10;;;;;;;5.01;100.00;96904.34;5022552;28;20032;-84
2021/01/08 09:58:45;;;;;;;1.60;0.57;;;;;;;5.05;100.00;96910.31;5025203;28;20032;-85
2021/01/08 10:01:13;;;;;;;2.83;1.17;;;;;;;5.11;100.00;96907.38;5023173;28;20033;-84
2021/01/08 10:03:49;;;;;;;0.98;0.70;;;;;;;5.08;100.00;96891.63;5028232;28;20067;-84
2021/01/08 10:06:15;;;;;;;2.15;0.98;;;;;;;5.09;100.00;96894.22;5037689;28;20082;-84
2021/01/08 10:08:41;;;;;;;1.27;1.10;;;;;;;5.14;100.00;96896.59;5018517;28;20033;-84
2021/01/08 10:11:07;;;;;;;1.75;1.05;;;;;;;5.13;100.00;96884.31;5035741;28;20040;-84
2021/01/08 10:13:34;;;;;;;2.63;1.65;;;;;;;5.13;100.00;96889.63;5035921;28;20044;-84
2021/01/08 10:16:09;;;;;;;4.60;2.63;;;;;;;5.08;100.00;96876.59;5044611;28;20029;-83
2021/01/08 10:18:37;;;;;;;1.55;1.13;;;;;;;5.13;100.00;96876.38;5035829;28;20044;-84
2021/01/08 10:21:15;;;;;;;7.05;3.10;;;;;;;5.12;100.00;96875.50;5031071;28;20391;-84
2021/01/08 10:23:42;;;;;;;1.10;1.00;;;;;;;5.23;100.00;96880.25;5024773;28;20040;-84
2021/01/08 10:26:13;;;;;;;2.05;1.55;;;;;;;5.28;100.00;96872.91;5040694;28;20010;-85
2021/01/08 10:28:47;;;;;;;1.95;1.75;;;;;;;5.29;100.00;96874.66;5017046;28;20087;-84
2021/01/08 10:31:14;;;;;;;2.55;2.20;;;;;;;5.08;100.00;96857.16;5030174;28;20060;-83
2021/01/08 10:33:39;;;;;;;5.70;3.88;;;;;;;5.18;100.00;96848.69;5041824;28;20232;-84
2021/01/08 10:36:06;;;;;;;4.07;2.67;;;;;;;5.17;100.00;96860.22;5016043;28;20124;-83
2021/01/08 10:38:32;;;;;;;1.35;1.15;;;;;;;5.05;100.00;96846.72;5016468;28;20037;-84
2021/01/08 10:40:57;;;;;;;4.78;2.25;;;;;;;5.12;100.00;96830.44;5020015;28;20119;-84
2021/01/08 10:43:23;;;;;;;0.90;0.90;;;;;;;5.05;100.00;96847.59;5028568;28;20059;-85
2021/01/08 10:45:49;;;;;;;1.83;1.70;;;;;;;5.03;100.00;96830.06;5016393;28;20026;-85
2021/01/08 10:48:15;;;;;;;4.82;2.85;;;;;;;5.15;100.00;96830.28;5047470;28;20488;-84
2021/01/08 10:50:40;;;;;;;2.72;1.25;;;;;;;5.21;100.00;96829.09;5036426;28;20067;-84
2021/01/08 10:53:06;;;;;;;0.57;0.57;;;;;;;5.37;100.00;96827.38;5052490;28;20023;-85
2021/01/08 10:55:32;;;;;;;1.13;1.10;;;;;;;5.17;100.00;96824.91;5027453;28;20029;-84
2021/01/08 10:57:58;;;;;;;2.55;1.50;;;;;;;5.23;100.00;96816.66;5036452;28;20087;-84
2021/01/08 11:00:23;;;;;;;0.63;0.63;;;;;;;5.26;100.00;96816.50;5028428;28;20033;-84
2021/01/08 11:02:49;;;;;;;2.90;1.48;;;;;;;5.23;100.00;96822.78;5019558;28;20468;-84
2021/01/08 11:05:15;;;;;;;1.05;0.95;;;;;;;5.20;100.00;96827.41;5033870;28;20052;-84
2021/01/08 11:07:40;;;;;;;1.08;1.05;;;;;;;5.27;100.00;96818.19;5037129;28;20021;-84
2021/01/08 11:10:07;;;;;;;2.42;1.80;;;;;;;5.26;100.00;96800.56;5047476;28;20408;-85
2021/01/08 11:12:33;;;;;;;2.90;1.63;;;;;;;5.08;100.00;96830.66;5030735;28;20123;-84
2021/01/08 11:15:00;;;;;;;3.85;2.20;;;;;;;4.88;100.00;96827.28;5018851;28;20468;-83
2021/01/08 11:17:26;;;;;;;9.00;3.08;;;;;;;5.07;100.00;96807.78;5050178;28;20036;-84
2021/01/08 11:19:52;;;;;;;4.80;1.88;;;;;;;4.91;100.00;96827.13;5027737;28;20033;-84
2021/01/08 11:22:17;;;;;;;1.55;1.45;;;;;;;4.97;100.00;96825.94;5040283;28;20041;-85
2021/01/08 11:24:43;;;;;;;2.15;1.80;;;;;;;5.05;100.00;96817.56;5028112;28;20043;-83
2021/01/08 11:27:09;;;;;;;1.88;1.67;;;;;;;5.19;100.00;96802.69;5034802;28;20059;-84
2021/01/08 11:29:34;;;;;;;3.78;3.00;;;;;;;5.30;100.00;96787.06;5043427;28;20037;-84
2021/01/08 11:32:00;;;;;;;0.70;0.52;;;;;;;5.27;100.00;96791.66;5028831;28;20570;-83
2021/01/08 11:34:26;;;;;;;7.43;3.15;;;;;;;5.20;100.00;96783.19;5026513;28;20501;-83
2021/01/08 11:36:55;;;;;;;34.65;15.35;;;;;;;5.16;100.00;96754.28;5016106;28;20033;-84